createdAt,value
2024-04-22T00:00:10.781Z,5.15
2024-04-22T00:02:37.402Z,5.18
2024-04-22T00:05:04.248Z,5.15
2024-04-22T00:07:30.983Z,5.02
2024-04-22T00:09:57.591Z,4.95
2024-04-22T00:12:24.186Z,5.11
2024-04-22T00:14:50.734Z,5.09
2024-04-22T00:17:17.320Z,5.00
2024-04-22T00:19:44.039Z,5.03
2024-04-22T00:22:10.781Z,5.01
2024-04-22T00:24:37.339Z,4.97
2024-04-22T00:27:04.623Z,4.94
2024-04-22T00:29:31.271Z,4.93
2024-04-22T00:31:57.913Z,4.88
2024-04-22T00:34:24.534Z,4.85
2024-04-22T00:36:51.538Z,4.82
2024-04-22T00:39:18.182Z,4.78
2024-04-22T00:41:44.770Z,4.75
2024-04-22T00:44:11.333Z,4.70
2024-04-22T00:46:38.082Z,4.68
2024-04-22T00:49:04.776Z,4.59
2024-04-22T00:51:32.570Z,4.59
2024-04-22T00:54:00.665Z,4.51
2024-04-22T00:56:30.017Z,4.51
2024-04-22T00:58:59.282Z,4.46
2024-04-22T01:01:27.515Z,4.42
2024-04-22T01:03:55.076Z,4.29
2024-04-22T01:06:21.648Z,4.30
2024-04-22T01:08:48.202Z,4.26
2024-04-22T01:11:15.248Z,4.21
2024-04-22T01:13:41.987Z,4.12
2024-04-22T01:16:08.995Z,4.09
2024-04-22T01:18:35.547Z,3.96
2024-04-22T01:21:02.177Z,4.02
2024-04-22T01:23:28.722Z,3.98
2024-04-22T01:25:59.034Z,3.96
2024-04-22T01:28:25.778Z,3.92
2024-04-22T01:30:52.419Z,3.89
2024-04-22T01:33:19.103Z,3.87
2024-04-22T01:35:45.750Z,3.84
2024-04-22T01:38:12.376Z,3.82
2024-04-22T01:40:39.060Z,3.82
2024-04-22T01:43:05.853Z,3.74
2024-04-22T01:45:32.452Z,3.74
2024-04-22T01:47:59.143Z,3.77
2024-04-22T01:50:25.768Z,3.79
2024-04-22T01:52:52.367Z,3.70
2024-04-22T01:55:19.098Z,3.79
2024-04-22T01:57:45.701Z,3.78
2024-04-22T02:00:13.169Z,3.79
2024-04-22T02:02:39.938Z,3.82
2024-04-22T02:05:06.881Z,3.85
2024-04-22T02:07:33.538Z,3.83
2024-04-22T02:10:08.892Z,3.87
2024-04-22T02:12:43.978Z,3.90
2024-04-22T02:15:10.565Z,3.92
2024-04-22T02:17:37.177Z,3.88
2024-04-22T02:20:04.449Z,3.96
2024-04-22T02:22:31.048Z,3.98
2024-04-22T02:24:57.647Z,4.00
2024-04-22T02:27:24.214Z,4.03
2024-04-22T02:29:50.770Z,4.05
2024-04-22T02:32:21.407Z,4.07
2024-04-22T02:34:48.051Z,3.97
2024-04-22T02:37:14.630Z,4.06
2024-04-22T02:39:41.219Z,4.10
2024-04-22T02:42:07.901Z,4.12
2024-04-22T02:44:34.730Z,4.12
2024-04-22T02:47:01.431Z,4.16
2024-04-22T02:49:30.730Z,4.17
2024-04-22T02:51:57.363Z,4.18
2024-04-22T02:54:29.287Z,4.20
2024-04-22T02:56:56.064Z,4.09
2024-04-22T02:59:22.707Z,4.18
2024-04-22T03:01:52.985Z,4.19
2024-04-22T03:04:19.541Z,4.26
2024-04-22T03:06:48.210Z,4.17
2024-04-22T03:09:14.930Z,4.13
2024-04-22T03:11:41.576Z,4.08
2024-04-22T03:14:08.190Z,4.04
2024-04-22T03:16:34.828Z,4.02
2024-04-22T03:19:01.418Z,3.97
2024-04-22T03:21:28.234Z,3.89
2024-04-22T03:23:54.846Z,3.91
2024-04-22T03:26:21.466Z,3.88
2024-04-22T03:28:48.092Z,3.83
2024-04-22T03:31:15.196Z,3.78
2024-04-22T03:33:42.008Z,3.59
2024-04-22T03:36:09.002Z,3.68
2024-04-22T03:38:35.536Z,3.61
2024-04-22T03:41:02.274Z,3.58
2024-04-22T03:43:28.891Z,3.51
2024-04-22T03:46:14.203Z,3.46
2024-04-22T03:48:59.524Z,3.39
2024-04-22T03:51:26.344Z,3.35
2024-04-22T03:53:52.935Z,3.18
2024-04-22T03:56:19.510Z,3.31
2024-04-22T03:58:46.103Z,3.30
2024-04-22T04:01:12.847Z,3.24
2024-04-22T04:03:39.459Z,3.19
2024-04-22T04:06:06.134Z,3.26
2024-04-22T04:08:35.848Z,3.26
2024-04-22T04:11:11.061Z,3.18
2024-04-22T04:13:37.756Z,3.25
2024-04-22T04:16:04.570Z,3.25
2024-04-22T04:18:31.188Z,3.28
2024-04-22T04:20:57.740Z,3.38
2024-04-22T04:23:24.279Z,3.42
2024-04-22T04:25:50.908Z,3.34
2024-04-22T04:28:17.540Z,3.53
2024-04-22T04:30:44.115Z,3.40
2024-04-22T04:33:10.716Z,3.67
2024-04-22T04:35:37.341Z,3.72
2024-04-22T04:38:04.037Z,3.76
2024-04-22T04:40:30.635Z,3.79
2024-04-22T04:42:57.239Z,3.90
2024-04-22T04:45:24.328Z,3.96
2024-04-22T04:47:54.769Z,4.02
2024-04-22T04:50:21.398Z,4.10
2024-04-22T04:52:48.009Z,4.16
2024-04-22T04:55:14.670Z,4.23
2024-04-22T04:57:41.264Z,4.27
2024-04-22T05:00:08.687Z,4.38
2024-04-22T05:02:35.342Z,4.46
2024-04-22T05:05:01.963Z,4.56
2024-04-22T05:07:29.010Z,4.68
2024-04-22T05:09:55.574Z,4.67
2024-04-22T05:12:22.115Z,4.86
2024-04-22T05:14:48.707Z,4.87
2024-04-22T05:17:15.333Z,5.08
2024-04-22T05:19:42.279Z,5.18
2024-04-22T05:22:08.889Z,5.26
2024-04-22T05:24:35.535Z,5.37
2024-04-22T05:27:02.159Z,5.47
2024-04-22T05:29:29.092Z,5.51
2024-04-22T05:31:55.650Z,5.61
2024-04-22T05:34:41.117Z,5.61
2024-04-22T05:37:08.658Z,5.64
2024-04-22T05:39:35.255Z,5.84
2024-04-22T05:42:01.861Z,5.81
2024-04-22T05:44:28.524Z,5.93
2024-04-22T05:46:55.086Z,6.07
2024-04-22T05:49:22.978Z,6.08
2024-04-22T05:51:51.017Z,6.19
2024-04-22T05:54:17.612Z,6.17
2024-04-22T05:56:44.756Z,6.15
2024-04-22T05:59:12.954Z,6.38
2024-04-22T06:01:42.115Z,6.42
2024-04-22T06:04:09.271Z,6.47
2024-04-22T06:06:38.889Z,6.49
2024-04-22T06:09:06.783Z,6.52
2024-04-22T06:11:34.035Z,6.69
2024-04-22T06:14:00.810Z,6.74
2024-04-22T06:16:28.838Z,6.72
2024-04-22T06:18:55.988Z,6.86
2024-04-22T06:21:25.401Z,6.91
2024-04-22T06:23:52.460Z,6.96
2024-04-22T06:26:19.401Z,7.02
2024-04-22T06:28:46.696Z,7.04
2024-04-22T06:31:13.556Z,7.09
2024-04-22T06:33:48.436Z,7.11
2024-04-22T06:36:15.510Z,7.14
2024-04-22T06:38:43.578Z,7.07
2024-04-22T06:41:10.299Z,7.14
2024-04-22T06:43:39.770Z,7.09
2024-04-22T06:46:06.832Z,7.12
2024-04-22T06:48:33.436Z,7.07
2024-04-22T06:51:01.812Z,7.14
2024-04-22T06:53:29.064Z,7.20
2024-04-22T06:55:55.773Z,7.20
2024-04-22T06:58:22.501Z,7.27
2024-04-22T07:00:49.203Z,7.56
2024-04-22T07:03:16.045Z,7.75
2024-04-22T07:05:42.681Z,7.78
2024-04-22T07:08:09.272Z,7.88
2024-04-22T07:10:35.930Z,8.06
2024-04-22T07:13:02.616Z,8.16
2024-04-22T07:15:29.462Z,8.18
2024-04-22T07:17:56.093Z,8.26
2024-04-22T07:20:22.888Z,8.27
2024-04-22T07:22:49.483Z,8.19
2024-04-22T07:25:16.145Z,8.23
2024-04-22T07:27:43.898Z,8.38
2024-04-22T07:30:11.872Z,8.41
2024-04-22T07:32:38.807Z,8.59
2024-04-22T07:35:06.002Z,8.66
2024-04-22T07:37:37.947Z,8.76
2024-04-22T07:40:07.508Z,8.82
2024-04-22T07:42:34.100Z,8.82
2024-04-22T07:45:00.649Z,8.87
2024-04-22T07:47:27.248Z,8.81
2024-04-22T07:49:53.850Z,8.90
2024-04-22T07:52:20.662Z,8.72
2024-04-22T07:54:47.821Z,8.92
2024-04-22T07:57:14.668Z,8.98
2024-04-22T07:59:41.493Z,8.93
2024-04-22T08:02:08.582Z,9.00
2024-04-22T08:04:35.569Z,9.05
2024-04-22T08:07:04.675Z,9.03
2024-04-22T08:09:31.886Z,9.00
2024-04-22T08:11:58.949Z,9.17
2024-04-22T08:14:25.570Z,9.22
2024-04-22T08:16:52.504Z,9.34
2024-04-22T08:19:19.195Z,9.30
2024-04-22T08:21:46.370Z,9.38
2024-04-22T08:24:12.993Z,9.28
2024-04-22T08:26:39.550Z,9.39
2024-04-22T08:29:06.149Z,9.40
2024-04-22T08:31:33.617Z,9.42
2024-04-22T08:34:00.199Z,9.49
2024-04-22T08:36:27.015Z,9.49
2024-04-22T08:38:53.582Z,9.51
2024-04-22T08:41:21.808Z,9.54
2024-04-22T08:43:49.140Z,9.50
2024-04-22T08:46:15.900Z,9.43
2024-04-22T08:48:42.631Z,9.60
2024-04-22T08:51:12.640Z,9.66
2024-04-22T08:53:39.238Z,9.74
2024-04-22T08:56:07.403Z,9.89
2024-04-22T08:58:34.114Z,9.96
2024-04-22T09:01:05.620Z,10.01
2024-04-22T09:03:32.207Z,10.13
2024-04-22T09:05:59.019Z,10.35
2024-04-22T09:08:25.926Z,10.44
2024-04-22T09:11:27.239Z,10.45
2024-04-22T09:13:45.886Z,10.88
2024-04-22T09:16:17.383Z,10.99
2024-04-22T09:18:44.358Z,11.20
2024-04-22T09:21:12.328Z,11.55
2024-04-22T09:23:39.136Z,11.78
2024-04-22T09:26:06.978Z,12.05
2024-04-22T09:28:38.188Z,12.22
2024-04-22T09:31:06.589Z,12.69
2024-04-22T09:33:37.906Z,12.82
2024-04-22T09:36:05.842Z,13.13
2024-04-22T09:38:45.483Z,13.53
2024-04-22T09:41:14.721Z,13.80
2024-04-22T09:43:48.265Z,13.94
2024-04-22T09:46:18.940Z,14.32
2024-04-22T09:48:47.347Z,14.37
2024-04-22T09:51:15.280Z,14.39
2024-04-22T09:53:42.775Z,14.55
2024-04-22T09:56:13.280Z,14.56
2024-04-22T09:58:41.588Z,14.50
2024-04-22T10:01:08.573Z,14.33
2024-04-22T10:03:35.501Z,14.04
2024-04-22T10:06:05.091Z,13.72
2024-04-22T10:08:33.328Z,13.69
2024-04-22T10:11:10.756Z,13.69
2024-04-22T10:13:38.194Z,13.68
2024-04-22T10:16:06.121Z,13.54
2024-04-22T10:18:33.481Z,13.69
2024-04-22T10:21:02.946Z,13.76
2024-04-22T10:23:30.141Z,13.63
2024-04-22T10:25:56.792Z,13.79
2024-04-22T10:28:23.487Z,13.88
2024-04-22T10:30:50.118Z,14.34
2024-04-22T10:33:16.809Z,14.57
2024-04-22T10:35:43.469Z,15.08
2024-04-22T10:38:10.009Z,15.43
2024-04-22T10:40:36.735Z,15.82
2024-04-22T10:43:03.428Z,16.10
2024-04-22T10:45:30.119Z,16.27
2024-04-22T10:48:07.784Z,16.46
2024-04-22T10:50:43.855Z,16.55
2024-04-22T10:53:10.621Z,16.58
2024-04-22T10:55:37.552Z,16.45
2024-04-22T10:58:05.907Z,16.33
2024-04-22T11:00:33.402Z,16.23
2024-04-22T11:03:00.968Z,15.98
2024-04-22T11:05:28.598Z,15.71
2024-04-22T11:07:55.547Z,15.39
2024-04-22T11:10:31.031Z,14.93
2024-04-22T11:13:01.773Z,14.60
2024-04-22T11:15:28.388Z,13.86
2024-04-22T11:18:05.412Z,13.39
2024-04-22T11:20:32.664Z,12.83
2024-04-22T11:22:59.792Z,12.19
2024-04-22T11:25:26.511Z,11.91
2024-04-22T11:27:53.238Z,11.55
2024-04-22T11:30:20.123Z,11.18
2024-04-22T11:32:46.853Z,10.91
2024-04-22T11:35:13.789Z,10.72
2024-04-22T11:37:41.287Z,10.44
2024-04-22T11:40:10.303Z,10.39
2024-04-22T11:42:36.929Z,10.33
2024-04-22T11:45:06.483Z,10.34
2024-04-22T11:47:33.641Z,10.46
2024-04-22T11:52:26.867Z,10.59
2024-04-22T11:54:53.524Z,10.73
2024-04-22T11:57:20.161Z,10.89
2024-04-22T11:59:46.744Z,10.97
2024-04-22T12:02:17.930Z,11.03
2024-04-22T12:04:45.815Z,11.19
2024-04-22T12:07:13.833Z,11.31
2024-04-22T12:09:40.568Z,11.48
2024-04-22T12:12:07.774Z,11.64
2024-04-22T12:14:34.443Z,11.91
2024-04-22T12:17:01.189Z,12.07
2024-04-22T12:19:28.399Z,11.98
2024-04-22T12:21:55.160Z,12.24
2024-04-22T12:24:21.758Z,12.51
2024-04-22T12:26:48.343Z,12.61
2024-04-22T12:29:14.910Z,12.78
2024-04-22T12:31:41.707Z,12.94
2024-04-22T12:34:12.859Z,13.15
2024-04-22T12:36:41.095Z,13.27
2024-04-22T12:39:07.754Z,13.38
2024-04-22T12:41:34.395Z,13.48
2024-04-22T12:44:03.706Z,13.59
2024-04-22T12:46:56.968Z,13.88
2024-04-22T12:49:42.453Z,13.61
2024-04-22T12:52:10.076Z,13.66
2024-04-22T12:54:36.755Z,13.69
2024-04-22T12:57:03.479Z,13.76
2024-04-22T12:59:30.106Z,13.79
2024-04-22T13:01:57.294Z,13.70
2024-04-22T13:04:24.501Z,13.60
2024-04-22T13:06:51.280Z,13.54
2024-04-22T13:09:18.295Z,13.46
2024-04-22T13:11:45.609Z,13.51
2024-04-22T13:14:12.549Z,13.43
2024-04-22T13:16:39.245Z,13.53
2024-04-22T13:19:07.797Z,13.59
2024-04-22T13:21:35.086Z,13.49
2024-04-22T13:24:01.862Z,13.53
2024-04-22T13:26:28.509Z,13.44
2024-04-22T13:28:55.157Z,13.46
2024-04-22T13:31:23.033Z,13.45
2024-04-22T13:33:54.383Z,13.31
2024-04-22T13:36:21.127Z,13.25
2024-04-22T13:38:48.181Z,12.96
2024-04-22T13:41:14.796Z,12.93
2024-04-22T13:43:41.434Z,12.81
2024-04-22T13:46:08.046Z,12.65
2024-04-22T13:48:34.748Z,12.45
2024-04-22T13:51:02.255Z,12.47
2024-04-22T13:53:32.082Z,12.31
2024-04-22T13:55:59.753Z,12.70
2024-04-22T13:58:27.122Z,12.45
2024-04-22T14:00:54.130Z,12.34
2024-04-22T14:03:20.969Z,12.42
2024-04-22T14:05:47.570Z,12.42
2024-04-22T14:08:14.183Z,12.14
2024-04-22T14:10:40.874Z,12.23
2024-04-22T14:13:07.724Z,12.30
2024-04-22T14:15:44.826Z,12.30
2024-04-22T14:18:15.206Z,12.16
2024-04-22T14:20:42.573Z,12.12
2024-04-22T14:23:09.145Z,12.07
2024-04-22T14:25:35.974Z,12.00
2024-04-22T14:28:02.664Z,11.95
2024-04-22T14:30:29.273Z,11.82
2024-04-22T14:32:56.094Z,11.68
2024-04-22T14:35:22.794Z,11.52
2024-04-22T14:37:49.492Z,11.34
2024-04-22T14:40:16.290Z,11.28
2024-04-22T14:42:42.845Z,11.17
2024-04-22T14:45:09.589Z,11.18
2024-04-22T14:47:36.285Z,11.22
2024-04-22T14:50:03.319Z,11.11
2024-04-22T14:52:29.897Z,11.14
2024-04-22T14:54:56.476Z,11.14
2024-04-22T14:57:23.144Z,11.09
2024-04-22T14:59:49.676Z,11.15
2024-04-22T15:02:17.714Z,11.27
2024-04-22T15:04:44.468Z,11.41
2024-04-22T15:07:11.176Z,11.44
2024-04-22T15:09:47.091Z,11.58
2024-04-22T15:12:14.431Z,11.53
2024-04-22T15:14:41.053Z,11.41
2024-04-22T15:17:07.869Z,11.59
2024-04-22T15:19:34.768Z,11.63
2024-04-22T15:22:01.466Z,11.65
2024-04-22T15:24:28.075Z,11.70
2024-04-22T15:26:54.808Z,11.83
2024-04-22T15:29:21.545Z,11.97
2024-04-22T15:31:48.223Z,12.23
2024-04-22T15:34:14.923Z,12.52
2024-04-22T15:36:41.527Z,12.72
2024-04-22T15:39:08.680Z,13.11
2024-04-22T15:41:36.215Z,13.10
2024-04-22T15:44:04.488Z,13.37
2024-04-22T15:46:31.657Z,13.42
2024-04-22T15:48:58.335Z,13.44
2024-04-22T15:51:25.256Z,13.46
2024-04-22T15:53:52.059Z,13.36
2024-04-22T15:56:18.928Z,13.22
2024-04-22T15:58:45.581Z,13.06
2024-04-22T16:01:12.219Z,12.74
2024-04-22T16:03:39.229Z,12.47
2024-04-22T16:06:06.502Z,12.46
2024-04-22T16:08:33.261Z,12.45
2024-04-22T16:10:59.988Z,12.22
2024-04-22T16:13:26.652Z,12.21
2024-04-22T16:15:53.288Z,12.09
2024-04-22T16:18:20.160Z,12.13
2024-04-22T16:20:56.379Z,12.06
2024-04-22T16:23:31.740Z,11.90
2024-04-22T16:26:00.190Z,11.72
2024-04-22T16:28:26.894Z,11.52
2024-04-22T16:30:53.656Z,11.27
2024-04-22T16:33:20.243Z,11.23
2024-04-22T16:35:46.820Z,11.09
2024-04-22T16:38:13.365Z,10.97
2024-04-22T16:40:40.248Z,10.98
2024-04-22T16:43:08.766Z,10.85
2024-04-22T16:45:35.355Z,10.82
2024-04-22T16:48:02.090Z,10.68
2024-04-22T16:50:28.849Z,10.72
2024-04-22T16:52:55.560Z,10.80
2024-04-22T16:55:22.302Z,10.78
2024-04-22T16:57:48.916Z,10.82
2024-04-22T17:00:15.789Z,10.77
2024-04-22T17:02:42.456Z,10.71
2024-04-22T17:05:09.302Z,10.54
2024-04-22T17:07:36.816Z,10.49
2024-04-22T17:10:07.582Z,10.54
2024-04-22T17:12:34.379Z,10.32
2024-04-22T17:15:01.317Z,10.25
2024-04-22T17:17:28.213Z,10.23
2024-04-22T17:19:55.047Z,10.29
2024-04-22T17:22:21.765Z,10.28
2024-04-22T17:24:51.859Z,10.30
2024-04-22T17:27:21.535Z,10.27
2024-04-22T17:29:48.357Z,10.23
2024-04-22T17:32:15.686Z,10.23
2024-04-22T17:34:42.328Z,10.07
2024-04-22T17:37:10.329Z,10.30
2024-04-22T17:39:38.089Z,10.28
2024-04-22T17:42:05.566Z,10.26
2024-04-22T17:44:32.168Z,10.19
2024-04-22T17:46:59.802Z,10.13
2024-04-22T17:49:26.589Z,10.06
2024-04-22T17:51:53.296Z,9.90
2024-04-22T17:54:19.874Z,9.81
2024-04-22T17:56:52.887Z,9.50
2024-04-22T17:59:23.417Z,9.49
2024-04-22T18:01:50.271Z,9.22
2024-04-22T18:04:16.975Z,9.16
2024-04-22T18:06:43.705Z,8.99
2024-04-22T18:09:10.748Z,8.84
2024-04-22T18:11:37.759Z,8.73
2024-04-22T18:14:04.645Z,8.54
2024-04-22T18:16:31.245Z,8.51
2024-04-22T18:18:59.580Z,8.36
2024-04-22T18:21:26.387Z,8.21
2024-04-22T18:23:53.827Z,8.18
2024-04-22T18:26:20.757Z,8.08
2024-04-22T18:28:47.620Z,7.94
2024-04-22T18:31:15.987Z,7.88
2024-04-22T18:33:44.386Z,7.78
2024-04-22T18:36:11.042Z,7.70
2024-04-22T18:38:37.906Z,7.59
2024-04-22T18:41:05.628Z,7.52
2024-04-22T18:43:34.468Z,7.34
2024-04-22T18:46:01.024Z,7.31
2024-04-22T18:48:29.607Z,7.22
2024-04-22T18:50:58.816Z,7.18
2024-04-22T18:53:25.842Z,7.13
2024-04-22T18:55:52.742Z,7.06
2024-04-22T18:58:19.375Z,7.01
2024-04-22T19:00:50.075Z,6.95
2024-04-22T19:03:16.820Z,6.90
2024-04-22T19:05:43.510Z,6.85
2024-04-22T19:08:10.154Z,6.79
2024-04-22T19:10:39.277Z,6.77
2024-04-22T19:13:06.706Z,6.73
2024-04-22T19:15:33.295Z,6.56
2024-04-22T19:18:00.052Z,6.59
2024-04-22T19:20:26.704Z,6.56
2024-04-22T19:22:53.319Z,6.48
2024-04-22T19:25:20.161Z,6.41
2024-04-22T19:27:47.118Z,6.32
2024-04-22T19:30:13.748Z,6.13
2024-04-22T19:32:40.516Z,6.04
2024-04-22T19:35:07.393Z,5.98
2024-04-22T19:37:34.028Z,5.87
2024-04-22T19:40:00.619Z,5.65
2024-04-22T19:42:27.172Z,5.65
2024-04-22T19:44:55.917Z,5.57
2024-04-22T19:47:24.076Z,5.50
2024-04-22T19:49:50.751Z,5.39
2024-04-22T19:52:17.462Z,5.29
2024-04-22T19:54:44.048Z,5.16
2024-04-22T19:57:10.622Z,5.00
2024-04-22T19:59:38.704Z,4.95
2024-04-22T20:02:05.430Z,4.78
2024-04-22T20:04:32.334Z,4.73
2024-04-22T20:06:59.062Z,4.60
2024-04-22T20:09:25.732Z,4.51
2024-04-22T20:11:52.329Z,4.39
2024-04-22T20:14:19.593Z,4.30
2024-04-22T20:16:59.669Z,4.19
2024-04-22T20:19:29.087Z,4.02
2024-04-22T20:21:55.768Z,3.87
2024-04-22T20:24:23.002Z,3.91
2024-04-22T20:26:49.573Z,3.81
2024-04-22T20:29:18.471Z,3.76
2024-04-22T20:31:45.375Z,3.68
2024-04-22T20:34:12.186Z,3.61
2024-04-22T20:36:39.388Z,3.46
2024-04-22T20:39:05.998Z,3.41
2024-04-22T20:41:32.717Z,3.35
2024-04-22T20:44:04.696Z,3.28
2024-04-22T20:46:31.374Z,3.20
2024-04-22T20:48:57.987Z,3.13
2024-04-22T20:51:24.544Z,3.07
2024-04-22T20:53:51.116Z,3.03
2024-04-22T20:56:18.644Z,2.98
2024-04-22T20:58:45.318Z,2.90
2024-04-22T21:01:11.980Z,2.85
2024-04-22T21:03:39.429Z,2.76
2024-04-22T21:06:06.214Z,2.79
2024-04-22T21:08:33.516Z,2.70
2024-04-22T21:11:02.566Z,2.69
2024-04-22T21:13:32.772Z,2.64
2024-04-22T21:16:02.332Z,2.52
2024-04-22T21:18:29.177Z,2.57
2024-04-22T21:20:56.270Z,2.54
2024-04-22T21:23:22.881Z,2.48
2024-04-22T21:25:49.599Z,2.48
2024-04-22T21:28:16.244Z,2.46
2024-04-22T21:30:42.838Z,2.40
2024-04-22T21:35:38.897Z,2.39
2024-04-22T21:38:05.558Z,2.37
2024-04-22T21:40:32.275Z,2.34
2024-04-22T21:42:58.961Z,2.33
2024-04-22T21:45:25.500Z,2.33
2024-04-22T21:47:52.403Z,2.31
2024-04-22T21:50:18.983Z,2.31
2024-04-22T21:52:45.557Z,2.25
2024-04-22T21:55:13.052Z,2.27
2024-04-22T21:58:17.476Z,2.29
2024-04-22T22:01:22.133Z,2.28
2024-04-22T22:04:26.614Z,2.27
2024-04-22T22:07:15.841Z,2.25
2024-04-22T22:09:42.839Z,2.10
2024-04-22T22:12:09.466Z,2.21
2024-04-22T22:14:36.306Z,2.20
2024-04-22T22:17:03.468Z,2.19
2024-04-22T22:19:31.567Z,2.18
2024-04-22T22:21:58.181Z,2.15
2024-04-22T22:24:24.758Z,2.16
2024-04-22T22:26:51.316Z,2.15
2024-04-22T22:29:17.890Z,2.14
2024-04-22T22:31:44.529Z,2.09
2024-04-22T22:34:11.110Z,2.08
2024-04-22T22:36:37.712Z,2.09
2024-04-22T22:39:04.278Z,2.09
2024-04-22T22:41:30.826Z,2.00
2024-04-22T22:43:57.411Z,2.08
2024-04-22T22:46:24.135Z,1.97
2024-04-22T22:48:50.802Z,2.02
2024-04-22T22:51:17.337Z,1.94
2024-04-22T22:53:44.006Z,1.95
2024-04-22T22:56:10.555Z,1.94
2024-04-22T22:58:37.546Z,1.89
2024-04-22T23:01:04.288Z,1.83
2024-04-22T23:03:30.867Z,1.81
2024-04-22T23:05:57.429Z,1.80
2024-04-22T23:08:23.957Z,1.83
2024-04-22T23:10:50.555Z,1.84
2024-04-22T23:13:17.438Z,1.80
2024-04-22T23:15:44.048Z,1.82
2024-04-22T23:18:10.615Z,1.74
2024-04-22T23:20:37.204Z,1.81
2024-04-22T23:23:04.005Z,1.77
2024-04-22T23:25:30.603Z,1.76
2024-04-22T23:27:57.198Z,1.76
2024-04-22T23:30:23.749Z,1.74
2024-04-22T23:32:50.424Z,1.72
2024-04-22T23:35:17.016Z,1.72
2024-04-22T23:37:43.610Z,1.69
2024-04-22T23:40:10.458Z,1.70
2024-04-22T23:42:37.047Z,1.68
2024-04-22T23:45:03.878Z,1.64
2024-04-22T23:47:30.435Z,1.62
2024-04-22T23:49:57.497Z,1.62
2024-04-22T23:52:24.129Z,1.63
2024-04-22T23:54:50.766Z,1.49
2024-04-22T23:57:17.300Z,1.50
2024-04-22T23:59:44.047Z,1.52
